Time;durP1;ratioP1;P1;durP2;ratioP2;P2;SDS_P1;SDS_P2;PMS_P1;PMS_P2;Temp;Humidity;BMP_temperature;BMP_pressure;BME280_temperature;BME280_humidity;BME280_pressure;Samples;Min_cycle;Max_cycle;Signal;HPM_P1;HPM_P2
2022/03/24 00:00:10;;;;;;;27.40;14.20;;;;;;;0.69;72.39;101258.98;104730;1276;72020;-68
2022/03/24 00:03:16;;;;;;;25.10;12.30;;;;;;;0.73;72.10;101255.09;104743;1276;66905;-68
2022/03/24 00:06:09;;;;;;;23.90;12.00;;;;;;;0.78;72.07;101251.50;104375;1276;71897;-68
2022/03/24 00:08:58;;;;;;;22.90;11.80;;;;;;;0.83;71.82;101253.16;104689;1276;59705;-68
2022/03/24 00:11:50;;;;;;;25.80;12.30;;;;;;;0.87;71.49;101256.57;103690;1276;1003141;-68
2022/03/24 00:14:40;;;;;;;22.90;12.00;;;;;;;0.89;71.44;101253.05;104580;1276;72073;-68
2022/03/24 00:17:36;;;;;;;23.50;11.10;;;;;;;0.90;71.02;101248.14;104435;1276;68360;-68
2022/03/24 00:20:25;;;;;;;24.20;11.00;;;;;;;0.90;70.97;101248.84;104461;1276;71954;-69
2022/03/24 00:23:17;;;;;;;22.00;10.20;;;;;;;0.90;70.83;101244.82;103897;1276;1003767;-68
2022/03/24 00:26:10;;;;;;;20.10;10.30;;;;;;;0.89;70.73;101244.83;104487;1276;59676;-68
2022/03/24 00:28:59;;;;;;;21.10;11.00;;;;;;;0.90;70.69;101240.64;104628;1277;72308;-68
2022/03/24 00:31:49;;;;;;;24.80;11.30;;;;;;;0.90;70.46;101238.36;104632;1276;68290;-68
2022/03/24 00:34:39;;;;;;;22.90;11.30;;;;;;;0.90;70.47;101235.56;104411;1279;71653;-69
2022/03/24 00:37:28;;;;;;;24.50;11.30;;;;;;;0.91;70.32;101235.73;104529;1276;59786;-69
2022/03/24 00:40:18;;;;;;;23.90;11.50;;;;;;;0.91;70.19;101232.57;103783;1276;1003223;-69
2022/03/24 00:43:08;;;;;;;19.00;10.10;;;;;;;0.93;70.05;101230.97;104477;1276;72094;-69
2022/03/24 00:45:57;;;;;;;20.50;10.30;;;;;;;0.93;70.07;101230.79;104518;1276;67004;-69
2022/03/24 00:48:49;;;;;;;19.90;10.50;;;;;;;0.94;69.74;101226.23;104491;1276;73693;-69
2022/03/24 00:51:38;;;;;;;19.40;9.30;;;;;;;0.94;69.49;101222.55;104641;1277;59668;-69
2022/03/24 00:54:28;;;;;;;22.90;10.90;;;;;;;0.95;69.42;101220.27;103747;1276;1003011;-69
2022/03/24 00:57:17;;;;;;;22.10;10.20;;;;;;;0.95;69.03;101220.08;104395;1276;73259;-69
2022/03/24 01:00:07;;;;;;;20.50;9.50;;;;;;;0.97;68.90;101217.43;104320;1279;67991;-69
2022/03/24 01:03:00;;;;;;;23.10;10.50;;;;;;;0.98;68.75;101217.58;103783;1277;1003423;-69
2022/03/24 01:05:48;;;;;;;21.50;10.60;;;;;;;1.00;68.32;101216.50;104458;1276;60213;-68
2022/03/24 01:08:38;;;;;;;22.00;10.10;;;;;;;1.00;68.12;101207.92;104434;1276;59873;-69
2022/03/24 01:11:27;;;;;;;19.70;10.30;;;;;;;1.03;67.91;101208.58;103844;1277;1003289;-69
2022/03/24 01:14:16;;;;;;;19.70;9.70;;;;;;;1.07;67.68;101205.70;104577;1276;66465;-69
2022/03/24 01:17:10;;;;;;;20.10;9.40;;;;;;;1.09;67.49;101203.55;104716;1276;73044;-68
2022/03/24 01:20:01;;;;;;;20.10;10.20;;;;;;;1.12;67.28;101204.20;104455;1276;59676;-68
2022/03/24 01:22:49;;;;;;;18.90;9.30;;;;;;;1.13;67.17;101202.58;104467;1279;60639;-69
2022/03/24 01:25:42;;;;;;;20.40;8.90;;;;;;;1.15;67.03;101202.55;103669;1276;1003260;-69
2022/03/24 01:28:30;;;;;;;19.60;9.10;;;;;;;1.16;66.90;101200.62;104486;1276;67169;-69
2022/03/24 01:31:20;;;;;;;19.20;9.80;;;;;;;1.17;66.73;101199.89;104712;1277;72093;-69
2022/03/24 01:34:12;;;;;;;21.60;9.20;;;;;;;1.17;66.65;101200.25;104483;1276;59698;-69
2022/03/24 01:37:01;;;;;;;19.90;9.80;;;;;;;1.16;66.56;101196.42;104489;1277;59635;-69
2022/03/24 01:39:52;;;;;;;19.70;9.90;;;;;;;1.15;66.60;101193.98;104586;1276;73877;-69
2022/03/24 01:42:41;;;;;;;20.90;9.90;;;;;;;1.15;66.61;101193.11;104821;1276;68780;-71
2022/03/24 01:45:30;;;;;;;21.20;9.20;;;;;;;1.16;66.56;101190.83;104695;1276;73044;-71
2022/03/24 01:48:18;;;;;;;19.90;9.20;;;;;;;1.17;66.44;101185.73;104470;1276;59830;-71
2022/03/24 01:51:07;;;;;;;20.40;9.90;;;;;;;1.17;66.36;101181.53;104835;1276;60324;-70
2022/03/24 01:53:59;;;;;;;19.80;10.00;;;;;;;1.18;66.26;101181.17;104457;1276;72235;-71
2022/03/24 01:56:50;;;;;;;20.00;11.10;;;;;;;1.17;66.22;101181.36;104563;1276;66967;-70
2022/03/24 01:59:40;;;;;;;20.20;9.50;;;;;;;1.18;66.12;101181.02;104435;1277;72985;-69
2022/03/24 02:02:29;;;;;;;20.90;9.00;;;;;;;1.17;66.13;101185.20;104668;1276;59704;-71
2022/03/24 02:05:18;;;;;;;20.50;10.40;;;;;;;1.19;66.14;101179.75;104367;1276;59642;-69
2022/03/24 02:08:07;;;;;;;21.40;10.40;;;;;;;1.21;66.12;101177.80;104820;1276;72209;-69
2022/03/24 02:10:56;;;;;;;23.30;10.30;;;;;;;1.21;65.65;101178.49;103749;1277;1003825;-70
2022/03/24 02:13:45;;;;;;;19.00;9.40;;;;;;;1.21;65.73;101176.22;104663;1277;72652;-69
2022/03/24 02:16:40;;;;;;;20.00;10.30;;;;;;;1.20;65.64;101175.01;104430;1276;59782;-69
2022/03/24 02:19:29;;;;;;;21.80;11.20;;;;;;;1.22;65.69;101174.11;104634;1276;59664;-69
2022/03/24 02:22:18;;;;;;;19.90;9.50;;;;;;;1.21;65.63;101173.95;104178;1276;1003882;-69
2022/03/24 02:25:09;;;;;;;23.60;10.40;;;;;;;1.20;65.54;101170.81;104599;1276;66958;-69
2022/03/24 02:27:59;;;;;;;19.50;9.50;;;;;;;1.18;65.44;101167.34;104430;1276;72998;-69
2022/03/24 02:30:50;;;;;;;21.70;9.80;;;;;;;1.17;65.62;101170.19;104420;1276;59792;-69
2022/03/24 02:33:40;;;;;;;24.00;10.60;;;;;;;1.15;65.64;101170.39;104526;1276;59737;-70
2022/03/24 02:36:38;;;;;;;19.40;9.60;;;;;;;1.13;65.62;101167.98;104870;1276;72683;-69
2022/03/24 02:39:28;;;;;;;20.00;9.50;;;;;;;1.11;65.63;101167.14;104476;1277;68194;-69
2022/03/24 02:42:22;;;;;;;47.20;19.00;;;;;;;1.09;65.84;101165.63;103838;1276;1003051;-69
2022/03/24 02:45:10;;;;;;;65.60;26.30;;;;;;;1.08;65.97;101165.13;104664;1276;59701;-69
2022/03/24 02:47:59;;;;;;;99.60;38.50;;;;;;;1.08;65.91;101165.84;104374;1276;59719;-70
2022/03/24 02:50:49;;;;;;;53.40;22.70;;;;;;;1.08;65.82;101168.45;103939;1277;1003833;-70
2022/03/24 02:53:38;;;;;;;46.90;22.60;;;;;;;1.08;65.76;101167.23;104658;1276;66891;-70
2022/03/24 02:56:28;;;;;;;87.70;34.10;;;;;;;1.07;65.89;101167.76;104447;1276;71709;-70
2022/03/24 02:59:17;;;;;;;63.50;25.40;;;;;;;1.07;65.81;101169.34;104447;1276;59785;-69
2022/03/24 03:02:13;;;;;;;49.30;22.50;;;;;;;1.07;65.75;101163.58;104466;1276;60639;-70
2022/03/24 03:05:03;;;;;;;38.20;17.50;;;;;;;1.08;65.42;101165.48;104565;1276;73884;-71
2022/03/24 03:07:51;;;;;;;32.90;16.00;;;;;;;1.08;65.48;101165.99;104356;1276;67075;-68
2022/03/24 03:10:40;;;;;;;30.00;14.80;;;;;;;1.08;65.55;101167.56;104311;1276;72510;-68
2022/03/24 03:13:28;;;;;;;31.10;16.20;;;;;;;1.06;65.49;101164.30;104538;1276;59725;-68
2022/03/24 03:16:17;;;;;;;27.40;13.40;;;;;;;1.08;65.45;101163.56;104670;1276;59536;-68
2022/03/24 03:19:08;;;;;;;26.70;13.90;;;;;;;1.08;65.42;101158.30;104444;1276;73503;-68
2022/03/24 03:21:57;;;;;;;27.60;13.30;;;;;;;1.07;65.36;101160.77;104685;1276;68086;-69
2022/03/24 03:24:45;;;;;;;27.10;12.90;;;;;;;1.07;65.42;101164.46;103669;1279;1003895;-69
2022/03/24 03:27:34;;;;;;;22.00;12.50;;;;;;;1.07;65.56;101166.58;104354;1276;59842;-69
2022/03/24 03:30:27;;;;;;;24.10;11.10;;;;;;;1.06;65.46;101166.39;104841;1276;59674;-68
2022/03/24 03:33:15;;;;;;;24.20;10.60;;;;;;;1.04;65.58;101162.41;104624;1276;73407;-68
2022/03/24 03:36:06;;;;;;;19.10;9.10;;;;;;;1.02;65.71;101162.63;103775;1277;1003797;-68
2022/03/24 03:38:55;;;;;;;20.10;9.80;;;;;;;1.01;65.82;101169.10;104449;1278;73276;-68
2022/03/24 03:41:44;;;;;;;18.70;8.70;;;;;;;1.00;65.96;101170.02;104723;1276;59768;-69
2022/03/24 03:44:34;;;;;;;19.20;9.00;;;;;;;0.99;66.06;101168.98;104693;1276;60294;-70
2022/03/24 03:47:25;;;;;;;22.30;10.80;;;;;;;0.97;66.17;101167.45;104447;1278;70900;-70
2022/03/24 03:50:13;;;;;;;21.40;10.10;;;;;;;0.95;66.11;101170.46;104685;1276;66944;-70
2022/03/24 03:53:02;;;;;;;24.40;10.90;;;;;;;0.93;66.33;101171.72;104523;1276;70595;-69
2022/03/24 03:55:50;;;;;;;21.80;9.70;;;;;;;0.92;66.42;101170.52;104521;1276;59779;-70
2022/03/24 03:58:40;;;;;;;20.80;9.10;;;;;;;0.90;66.52;101172.48;104720;1276;59559;-69
2022/03/24 04:01:30;;;;;;;21.60;10.20;;;;;;;0.89;66.56;101172.85;104545;1276;73221;-70
2022/03/24 04:04:19;;;;;;;20.30;10.30;;;;;;;0.87;66.94;101173.93;104628;1277;68280;-70
2022/03/24 04:07:09;;;;;;;21.90;10.90;;;;;;;0.85;66.79;101172.75;104452;1276;71989;-70
2022/03/24 04:09:58;;;;;;;22.70;10.50;;;;;;;0.82;67.14;101172.45;104500;1276;59724;-70
2022/03/24 04:12:52;;;;;;;18.10;8.40;;;;;;;0.81;67.15;101175.46;104403;1277;59708;-69
2022/03/24 04:15:41;;;;;;;20.60;9.80;;;;;;;0.79;67.32;101176.70;104474;1276;73257;-71
2022/03/24 04:18:30;;;;;;;23.70;10.20;;;;;;;0.78;67.29;101173.59;103717;1276;1003716;-69
2022/03/24 04:21:21;;;;;;;21.30;10.50;;;;;;;0.78;67.38;101172.52;104645;1276;73358;-69
2022/03/24 04:24:13;;;;;;;19.80;9.50;;;;;;;0.76;67.34;101170.82;103771;1276;1002969;-70
2022/03/24 04:27:02;;;;;;;21.40;9.30;;;;;;;0.75;67.26;101171.39;104511;1276;60295;-70
2022/03/24 04:29:52;;;;;;;20.30;9.70;;;;;;;0.74;67.41;101172.61;104463;1276;73233;-69
2022/03/24 04:32:42;;;;;;;20.60;9.40;;;;;;;0.70;67.28;101165.71;104465;1275;66671;-69
2022/03/24 04:35:32;;;;;;;21.80;10.40;;;;;;;0.72;67.25;101171.44;104686;1276;71888;-69
2022/03/24 04:38:21;;;;;;;21.90;9.40;;;;;;;0.72;67.43;101173.52;104499;1275;59673;-69
2022/03/24 04:41:10;;;;;;;21.60;9.00;;;;;;;0.72;67.43;101173.53;104486;1276;59648;-69
2022/03/24 04:44:00;;;;;;;22.10;10.20;;;;;;;0.73;67.52;101171.75;104532;1277;72200;-70
2022/03/24 04:46:53;;;;;;;20.30;9.60;;;;;;;0.74;67.27;101173.13;104510;1276;68177;-69
2022/03/24 04:49:42;;;;;;;26.70;10.70;;;;;;;0.77;67.12;101170.63;104693;1276;71706;-69
2022/03/24 04:52:32;;;;;;;24.20;10.10;;;;;;;0.80;67.10;101173.90;104774;1276;59655;-69
2022/03/24 04:55:20;;;;;;;21.50;9.90;;;;;;;0.83;66.84;101169.98;104516;1276;59673;-69
2022/03/24 04:58:11;;;;;;;22.70;11.40;;;;;;;0.85;66.61;101165.06;104353;1275;73579;-69
2022/03/24 05:01:00;;;;;;;24.50;11.20;;;;;;;0.91;66.31;101165.80;104491;1278;66697;-69
2022/03/24 05:03:50;;;;;;;21.70;10.50;;;;;;;0.98;65.84;101168.47;104623;1279;73350;-70
2022/03/24 05:06:38;;;;;;;27.10;10.90;;;;;;;1.05;65.49;101162.39;104725;1276;59802;-70
2022/03/24 05:09:27;;;;;;;23.30;11.10;;;;;;;1.11;65.27;101157.89;105006;1274;59584;-69
2022/03/24 05:12:17;;;;;;;21.70;10.10;;;;;;;1.18;65.03;101151.96;104794;1276;73350;-69
2022/03/24 05:15:09;;;;;;;23.90;11.40;;;;;;;1.28;64.50;101151.23;104753;1275;66619;-71
2022/03/24 05:17:58;;;;;;;25.40;9.60;;;;;;;1.37;64.15;101147.02;104611;1276;73333;-69
2022/03/24 05:20:53;;;;;;;20.90;10.60;;;;;;;1.46;63.96;101145.58;104303;1275;1002680;-69
2022/03/24 05:23:45;;;;;;;22.40;9.60;;;;;;;1.55;63.66;101143.29;105335;1274;59676;-71
2022/03/24 05:26:34;;;;;;;29.20;12.10;;;;;;;1.63;63.38;101141.88;104742;1276;71765;-71
2022/03/24 05:29:31;;;;;;;22.40;10.90;;;;;;;1.72;63.10;101145.17;105321;1273;68792;-71
2022/03/24 05:32:22;;;;;;;21.90;9.80;;;;;;;1.82;62.85;101142.66;105529;1274;73202;-71
2022/03/24 05:35:17;;;;;;;19.70;9.10;;;;;;;1.92;62.45;101143.11;104885;1275;59674;-71
2022/03/24 05:38:09;;;;;;;21.10;9.60;;;;;;;2.02;62.24;101143.91;105284;1274;59711;-69
2022/03/24 05:41:03;;;;;;;20.70;9.90;;;;;;;2.14;61.94;101145.73;104765;1274;70849;-71
2022/03/24 05:44:02;;;;;;;23.30;10.60;;;;;;;2.25;61.61;101143.54;104868;1274;67692;-69
2022/03/24 05:47:06;;;;;;;25.50;10.70;;;;;;;2.37;61.26;101140.41;104101;1279;1003266;-71
2022/03/24 05:49:54;;;;;;;18.40;9.10;;;;;;;2.48;60.80;101140.10;104942;1274;59592;-73
2022/03/24 05:53:42;;;;;;;21.30;9.70;;;;;;;2.62;60.50;101135.88;106198;1274;60577;-71
2022/03/24 05:57:01;;;;;;;26.10;10.80;;;;;;;2.79;60.12;101134.88;105142;1274;71516;-70
2022/03/24 06:00:06;;;;;;;21.30;9.80;;;;;;;2.95;59.28;101130.58;105011;1278;68397;-71
2022/03/24 06:03:15;;;;;;;21.60;10.40;;;;;;;3.12;59.14;101133.05;104802;1277;73052;-71
2022/03/24 06:06:14;;;;;;;22.80;9.80;;;;;;;3.27;58.04;101128.41;104732;1277;60064;-70
2022/03/24 06:09:09;;;;;;;24.10;10.80;;;;;;;3.41;57.84;101131.15;104777;1278;60347;-70
2022/03/24 06:12:33;;;;;;;24.20;9.50;;;;;;;3.56;57.13;101130.64;104614;1277;72528;-69
2022/03/24 06:15:50;;;;;;;24.00;9.70;;;;;;;3.73;56.23;101130.65;104259;1278;1005036;-70
2022/03/24 06:19:00;;;;;;;23.10;8.80;;;;;;;3.93;55.77;101131.77;104943;1277;72999;-69
2022/03/24 06:21:56;;;;;;;18.60;7.00;;;;;;;4.12;54.54;101130.97;104891;1277;59777;-70
2022/03/24 06:24:58;;;;;;;20.10;9.20;;;;;;;4.29;53.74;101131.96;104582;1278;59939;-71
2022/03/24 06:28:08;;;;;;;23.50;10.60;;;;;;;4.47;52.47;101131.32;103962;1278;1003803;-70
2022/03/24 06:31:06;;;;;;;23.80;9.60;;;;;;;4.64;51.89;101131.79;104522;1278;68459;-69
2022/03/24 06:34:10;;;;;;;22.00;9.90;;;;;;;4.86;51.41;101137.67;104771;1274;72219;-71
2022/03/24 06:37:04;;;;;;;20.90;9.90;;;;;;;5.06;50.67;101136.05;104838;1274;59781;-70
2022/03/24 06:39:54;;;;;;;24.50;10.50;;;;;;;5.31;50.06;101135.63;104871;1274;60274;-72
2022/03/24 06:42:54;;;;;;;20.60;10.30;;;;;;;5.76;49.46;101135.44;104810;1274;71912;-72
2022/03/24 06:45:44;;;;;;;21.30;10.00;;;;;;;7.00;46.42;101132.98;104927;1274;68328;-72
2022/03/24 06:48:37;;;;;;;22.30;10.60;;;;;;;8.59;42.62;101130.37;103375;1274;1003288;-71
2022/03/24 06:51:27;;;;;;;20.50;10.70;;;;;;;9.75;40.59;101120.52;104920;1274;59687;-70
2022/03/24 06:54:43;;;;;;;22.10;10.60;;;;;;;10.35;38.77;101125.94;105000;1275;60340;-72
2022/03/24 06:57:47;;;;;;;20.20;10.80;;;;;;;11.46;37.45;101119.36;104996;1274;72310;-73
2022/03/24 07:00:52;;;;;;;21.40;10.80;;;;;;;12.45;35.37;101115.20;105140;1274;66075;-71
2022/03/24 07:04:11;;;;;;;26.40;12.40;;;;;;;14.07;32.73;101115.09;106077;1274;71823;-72
2022/03/24 07:07:28;;;;;;;21.90;11.30;;;;;;;15.59;31.13;101108.94;105334;1274;59782;-73
2022/03/24 07:10:49;;;;;;;23.70;11.60;;;;;;;17.04;27.93;101106.34;105133;1274;60351;-74
2022/03/24 07:13:54;;;;;;;21.40;11.70;;;;;;;18.05;26.60;101108.40;104994;1274;73638;-72
2022/03/24 07:16:51;;;;;;;18.10;9.90;;;;;;;18.87;25.64;101099.81;104798;1274;65698;-72
2022/03/24 07:19:41;;;;;;;17.00;10.00;;;;;;;19.70;24.60;101097.06;105218;1274;71515;-73
2022/03/24 07:22:35;;;;;;;18.60;11.10;;;;;;;20.27;23.78;101096.77;104946;1275;59829;-72
2022/03/24 07:25:25;;;;;;;19.20;11.10;;;;;;;20.77;22.99;101096.48;104970;1275;59649;-73
2022/03/24 07:28:29;;;;;;;19.10;11.10;;;;;;;21.11;22.12;101095.09;104820;1274;72612;-73
2022/03/24 07:31:28;;;;;;;16.40;10.10;;;;;;;21.20;21.70;101094.73;105218;1274;68533;-73
2022/03/24 07:34:19;;;;;;;19.40;10.90;;;;;;;21.21;21.42;101095.89;105328;1274;71874;-72
2022/03/24 07:37:17;;;;;;;17.80;10.20;;;;;;;21.31;21.58;101098.19;105121;1275;59749;-72
2022/03/24 07:40:18;;;;;;;17.60;10.00;;;;;;;21.71;21.21;101097.21;105421;1274;59730;-73
2022/03/24 07:43:11;;;;;;;16.80;10.60;;;;;;;21.97;20.65;101093.73;105402;1274;72431;-72
2022/03/24 07:46:15;;;;;;;15.90;10.60;;;;;;;22.22;20.49;101100.14;105206;1274;68164;-73
2022/03/24 07:49:04;;;;;;;17.10;10.30;;;;;;;22.10;20.08;101094.80;105349;1275;71837;-73
2022/03/24 07:52:21;;;;;;;16.20;9.90;;;;;;;22.24;20.16;101098.04;105075;1274;59870;-72
2022/03/24 07:55:43;;;;;;;16.70;9.50;;;;;;;22.51;19.88;101098.41;105465;1274;60351;-73
2022/03/24 07:59:13;;;;;;;16.60;10.40;;;;;;;22.41;19.70;101099.81;105114;1274;72365;-73
2022/03/24 08:02:29;;;;;;;17.50;10.30;;;;;;;22.72;19.55;101099.64;105125;1274;67662;-72
2022/03/24 08:05:29;;;;;;;16.50;9.60;;;;;;;23.06;19.28;101100.97;105256;1274;71349;-73
2022/03/24 08:08:50;;;;;;;16.50;10.00;;;;;;;23.48;18.81;101097.86;105392;1274;59808;-73
2022/03/24 08:12:17;;;;;;;17.70;10.10;;;;;;;23.73;18.63;101093.98;105105;1274;59778;-72
2022/03/24 08:15:24;;;;;;;15.60;8.50;;;;;;;23.77;18.44;101095.02;105315;1274;72566;-72
2022/03/24 08:18:26;;;;;;;15.60;9.80;;;;;;;23.94;18.59;101092.55;105063;1277;66578;-73
2022/03/24 08:21:43;;;;;;;16.50;9.80;;;;;;;24.10;18.26;101091.02;105271;1274;73454;-72
2022/03/24 08:25:08;;;;;;;15.10;8.20;;;;;;;24.19;18.54;101093.84;105988;1273;59301;-73
2022/03/24 08:28:46;;;;;;;15.90;9.30;;;;;;;24.58;18.00;101098.50;105529;1274;59558;-74
2022/03/24 08:32:28;;;;;;;17.50;9.50;;;;;;;24.93;17.84;101099.19;105494;1274;73183;-73
2022/03/24 08:35:41;;;;;;;15.00;9.40;;;;;;;25.28;17.67;101098.33;104881;1275;66879;-72
2022/03/24 08:39:11;;;;;;;15.20;8.80;;;;;;;25.38;17.12;101093.30;104958;1274;71502;-73
2022/03/24 08:42:30;;;;;;;14.00;8.90;;;;;;;25.19;17.06;101099.05;105409;1273;59758;-72
2022/03/24 08:45:53;;;;;;;15.20;8.70;;;;;;;25.39;16.92;101096.21;105179;1274;59728;-73
2022/03/24 08:48:47;;;;;;;13.40;8.10;;;;;;;25.55;16.87;101099.17;105392;1274;72651;-74
2022/03/24 08:52:00;;;;;;;17.30;8.80;;;;;;;25.84;16.69;101097.57;104681;1274;66861;-73
2022/03/24 08:54:59;;;;;;;15.00;9.00;;;;;;;25.79;16.46;101098.77;105101;1273;72883;-73
2022/03/24 08:57:48;;;;;;;13.00;8.50;;;;;;;25.87;16.27;101101.48;104899;1277;59575;-74
2022/03/24 09:00:41;;;;;;;14.20;8.10;;;;;;;25.69;16.40;101102.66;105256;1274;60844;-72
2022/03/24 09:03:42;;;;;;;14.40;8.30;;;;;;;25.90;16.81;101104.71;104668;1273;665594;-72
2022/03/24 09:06:44;;;;;;;14.70;8.20;;;;;;;26.24;16.61;101104.48;104941;1273;68284;-73
2022/03/24 09:09:46;;;;;;;12.70;8.10;;;;;;;26.63;16.15;101106.23;105086;1273;72361;-74
2022/03/24 09:12:39;;;;;;;14.00;8.20;;;;;;;26.86;15.73;101106.60;104982;1273;59854;-74
2022/03/24 09:15:34;;;;;;;13.60;8.80;;;;;;;27.04;15.64;101103.48;105075;1274;60340;-74
2022/03/24 09:18:24;;;;;;;15.40;8.90;;;;;;;27.13;15.48;101099.11;104833;1273;72339;-73
2022/03/24 09:21:16;;;;;;;17.70;9.50;;;;;;;27.14;15.20;101104.41;104809;1274;68887;-73
2022/03/24 09:24:09;;;;;;;13.80;8.20;;;;;;;27.19;15.00;101107.20;105208;1273;72182;-73
2022/03/24 09:27:02;;;;;;;13.30;8.50;;;;;;;26.80;15.16;101106.89;104941;1273;59861;-73
2022/03/24 09:29:52;;;;;;;13.50;7.90;;;;;;;26.71;15.78;101104.86;104780;1277;61277;-72
2022/03/24 09:32:48;;;;;;;13.10;7.60;;;;;;;26.77;15.73;101102.38;105050;1273;72268;-73
2022/03/24 09:35:46;;;;;;;13.30;8.30;;;;;;;26.74;15.70;101103.38;104677;1273;66855;-73
2022/03/24 09:38:40;;;;;;;13.20;7.20;;;;;;;26.76;15.55;101103.27;105150;1273;72935;-72
2022/03/24 09:41:31;;;;;;;12.30;7.80;;;;;;;26.47;15.45;101104.19;104813;1274;59846;-72
2022/03/24 09:44:20;;;;;;;13.60;8.30;;;;;;;26.30;15.57;101104.06;104727;1273;60354;-72
2022/03/24 09:47:12;;;;;;;13.20;7.00;;;;;;;26.20;15.42;101100.35;104895;1273;71773;-72
2022/03/24 09:50:02;;;;;;;13.00;7.90;;;;;;;26.01;15.58;101098.33;104969;1273;68768;-72
2022/03/24 09:52:56;;;;;;;13.80;8.00;;;;;;;26.21;16.00;101099.52;104675;1276;71903;-72
2022/03/24 09:56:01;;;;;;;14.20;8.70;;;;;;;26.50;15.68;101099.67;105134;1273;59699;-73
2022/03/24 09:59:00;;;;;;;14.00;8.50;;;;;;;26.78;15.76;101097.73;105019;1273;59663;-73
2022/03/24 10:01:52;;;;;;;13.00;8.10;;;;;;;27.00;15.52;101102.21;104882;1273;73215;-72
2022/03/24 10:04:50;;;;;;;14.80;8.60;;;;;;;27.21;14.99;101103.86;105166;1274;67081;-72
2022/03/24 10:07:46;;;;;;;14.10;8.50;;;;;;;27.47;15.11;101102.84;104871;1273;73460;-73
2022/03/24 10:10:43;;;;;;;12.80;8.00;;;;;;;27.63;14.98;101093.74;104907;1274;59682;-72
2022/03/24 10:14:01;;;;;;;14.90;8.20;;;;;;;27.53;14.73;101103.06;104846;1273;61266;-73
2022/03/24 10:16:53;;;;;;;14.10;8.50;;;;;;;27.66;14.69;101096.98;104900;1274;73707;-73
2022/03/24 10:19:57;;;;;;;16.00;8.40;;;;;;;27.86;14.58;101099.52;104817;1273;68320;-72
2022/03/24 10:23:04;;;;;;;14.90;8.20;;;;;;;28.08;14.38;101094.44;105133;1273;72579;-72
2022/03/24 10:26:02;;;;;;;15.60;8.00;;;;;;;28.45;14.34;101091.52;104902;1274;59692;-72
2022/03/24 10:28:58;;;;;;;12.80;7.20;;;;;;;28.92;14.19;101089.96;105191;1274;59665;-73
2022/03/24 10:32:18;;;;;;;12.30;7.50;;;;;;;29.19;14.04;101093.41;104890;1273;72789;-74
2022/03/24 10:35:13;;;;;;;13.20;7.10;;;;;;;29.39;13.71;101093.30;104841;1281;68156;-73
2022/03/24 10:38:04;;;;;;;13.30;6.90;;;;;;;29.58;13.53;101089.26;104144;1284;73182;-73
2022/03/24 10:41:32;;;;;;;12.70;5.90;;;;;;;29.58;12.85;101089.80;104268;1281;59752;-73
2022/03/24 10:44:21;;;;;;;13.10;6.40;;;;;;;29.25;13.04;101089.13;104175;1281;60946;-73
2022/03/24 10:47:40;;;;;;;12.50;6.00;;;;;;;28.92;13.44;101092.17;104457;1281;73617;-72
2022/03/24 10:50:41;;;;;;;10.70;6.00;;;;;;;28.99;13.43;101089.87;104625;1281;67036;-73
2022/03/24 10:53:43;;;;;;;12.10;6.30;;;;;;;29.31;13.31;101087.55;104105;1281;71420;-72
2022/03/24 10:56:40;;;;;;;12.30;6.10;;;;;;;29.29;13.19;101089.45;104324;1281;59856;-72
2022/03/24 10:59:44;;;;;;;13.80;6.60;;;;;;;28.91;13.15;101088.08;104372;1281;59644;-73
2022/03/24 11:02:44;;;;;;;13.60;5.80;;;;;;;28.35;13.49;101086.38;104622;1281;72028;-73
2022/03/24 11:05:36;;;;;;;12.50;6.10;;;;;;;28.12;13.92;101083.10;104507;1281;68820;-74
2022/03/24 11:08:25;;;;;;;11.50;5.80;;;;;;;27.63;14.33;101081.70;104279;1281;72855;-73
2022/03/24 11:11:16;;;;;;;12.00;6.30;;;;;;;27.29;14.55;101084.91;104409;1281;59760;-72
2022/03/24 11:14:05;;;;;;;11.80;6.70;;;;;;;27.12;14.74;101086.33;104883;1276;59947;-72
2022/03/24 11:17:00;;;;;;;13.60;6.10;;;;;;;27.03;14.97;101080.20;104853;1274;73371;-72
2022/03/24 11:20:00;;;;;;;12.00;6.10;;;;;;;26.88;15.06;101083.29;104815;1274;67915;-72
2022/03/24 11:23:20;;;;;;;11.10;6.10;;;;;;;26.88;15.34;101081.80;104892;1275;72858;-73
2022/03/24 11:26:15;;;;;;;11.20;6.70;;;;;;;26.71;15.04;101081.39;104831;1274;59650;-72
2022/03/24 11:29:08;;;;;;;12.50;6.90;;;;;;;26.18;15.49;101085.38;104815;1274;60787;-73
2022/03/24 11:32:01;;;;;;;10.80;6.80;;;;;;;26.14;15.75;101081.39;104711;1274;73474;-73
2022/03/24 11:34:52;;;;;;;11.40;6.50;;;;;;;25.83;15.90;101077.96;104860;1274;68020;-74
2022/03/24 11:37:45;;;;;;;11.50;6.00;;;;;;;25.64;16.49;101078.96;104949;1274;73023;-73
2022/03/24 11:40:39;;;;;;;12.00;6.50;;;;;;;25.48;16.88;101075.98;104916;1274;59788;-72
2022/03/24 11:43:29;;;;;;;12.10;6.10;;;;;;;25.42;16.69;101076.63;104715;1275;59956;-74
2022/03/24 11:46:59;;;;;;;12.70;6.50;;;;;;;25.30;16.79;101071.70;104897;1274;73226;-72
2022/03/24 11:50:18;;;;;;;12.80;6.30;;;;;;;24.99;17.04;101076.77;105147;1274;68650;-72
2022/03/24 11:53:10;;;;;;;12.30;6.90;;;;;;;24.61;17.52;101074.89;104666;1279;73859;-73
2022/03/24 11:55:59;;;;;;;13.00;6.50;;;;;;;24.36;17.68;101065.33;104445;1279;59976;-72
2022/03/24 11:59:23;;;;;;;11.80;6.10;;;;;;;24.02;18.29;101072.76;104743;1279;60533;-72
2022/03/24 12:02:19;;;;;;;11.80;6.30;;;;;;;23.40;18.67;101073.27;104624;1279;71982;-71
2022/03/24 12:05:11;;;;;;;12.20;6.10;;;;;;;23.19;18.89;101071.48;104683;1279;68098;-72
2022/03/24 12:08:06;;;;;;;12.20;5.90;;;;;;;23.01;19.07;101073.34;104468;1279;72853;-73
2022/03/24 12:10:56;;;;;;;11.50;5.80;;;;;;;22.87;19.10;101071.34;104496;1280;59910;-73
2022/03/24 12:13:55;;;;;;;10.30;5.00;;;;;;;22.79;19.00;101071.02;104729;1279;61149;-73
2022/03/24 12:16:53;;;;;;;11.60;5.20;;;;;;;22.59;18.73;101068.31;104700;1279;73760;-72
2022/03/24 12:19:56;;;;;;;13.10;5.90;;;;;;;22.40;19.00;101063.30;104534;1280;67939;-71
2022/03/24 12:22:45;;;;;;;15.20;5.90;;;;;;;22.09;19.49;101062.88;104707;1279;72992;-72
2022/03/24 12:25:38;;;;;;;10.70;5.10;;;;;;;21.77;19.88;101057.91;104644;1279;59727;-71
2022/03/24 12:28:27;;;;;;;12.20;5.10;;;;;;;20.97;20.23;101061.71;104749;1279;59682;-70
2022/03/24 12:31:18;;;;;;;12.80;5.20;;;;;;;20.25;21.18;101054.64;104699;1274;73632;-70
2022/03/24 12:34:14;;;;;;;11.40;5.90;;;;;;;19.80;21.95;101057.55;104907;1274;67927;-70
2022/03/24 12:37:04;;;;;;;13.00;5.60;;;;;;;19.39;22.42;101056.05;105081;1274;71906;-71
2022/03/24 12:40:09;;;;;;;13.50;5.80;;;;;;;18.89;22.99;101057.94;104929;1274;59847;-71
2022/03/24 12:43:01;;;;;;;13.10;5.70;;;;;;;18.43;23.67;101057.59;104917;1274;60652;-70
2022/03/24 12:45:50;;;;;;;11.90;6.00;;;;;;;18.07;24.32;101067.15;105174;1274;73457;-71
2022/03/24 12:48:57;;;;;;;12.20;6.00;;;;;;;17.67;24.41;101059.14;104930;1274;67041;-70
2022/03/24 12:52:07;;;;;;;15.30;6.30;;;;;;;17.29;25.15;101058.20;104870;1274;74334;-72
2022/03/24 12:54:56;;;;;;;12.60;5.90;;;;;;;17.07;25.71;101053.59;104999;1274;59671;-71
2022/03/24 12:57:57;;;;;;;11.70;5.90;;;;;;;16.90;25.82;101060.27;104746;1275;60035;-69
2022/03/24 13:00:49;;;;;;;11.90;5.70;;;;;;;16.63;25.92;101061.89;104696;1274;73612;-72
2022/03/24 13:03:38;;;;;;;14.20;6.20;;;;;;;16.42;26.40;101054.27;104818;1274;68353;-70
2022/03/24 13:06:28;;;;;;;12.10;6.10;;;;;;;16.27;26.88;101055.85;105146;1274;73223;-69
2022/03/24 13:09:22;;;;;;;12.70;5.90;;;;;;;16.04;27.11;101052.83;105227;1274;59788;-69
2022/03/24 13:12:12;;;;;;;11.40;5.50;;;;;;;15.91;27.13;101049.06;104900;1274;59666;-70
2022/03/24 13:15:02;;;;;;;14.40;5.70;;;;;;;15.92;27.33;101047.77;105094;1274;73646;-72
2022/03/24 13:17:54;;;;;;;11.50;5.40;;;;;;;15.78;27.17;101048.06;104951;1274;67946;-70
2022/03/24 13:20:51;;;;;;;10.50;4.80;;;;;;;15.64;27.50;101040.38;104836;1274;73805;-70